sensor_id;sensor_type;location;lat;lon;timestamp;P1;durP1;ratioP1;P2;durP2;ratioP2
15385;SDS011;7791;47.246;9.648;2022-10-30T00:01:58;18.03;;;5.93;;
15385;SDS011;7791;47.246;9.648;2022-10-30T00:04:24;17.40;;;5.97;;
15385;SDS011;7791;47.246;9.648;2022-10-30T00:06:49;18.50;;;5.90;;
15385;SDS011;7791;47.246;9.648;2022-10-30T00:09:16;15.23;;;5.77;;
15385;SDS011;7791;47.246;9.648;2022-10-30T00:11:42;17.37;;;6.00;;
15385;SDS011;7791;47.246;9.648;2022-10-30T00:14:08;19.57;;;6.50;;
15385;SDS011;7791;47.246;9.648;2022-10-30T00:16:33;20.50;;;6.03;;
15385;SDS011;7791;47.246;9.648;2022-10-30T00:18:59;19.13;;;6.13;;
15385;SDS011;7791;47.246;9.648;2022-10-30T00:21:25;12.73;;;5.97;;
15385;SDS011;7791;47.246;9.648;2022-10-30T00:23:51;13.03;;;5.83;;
15385;SDS011;7791;47.246;9.648;2022-10-30T00:26:20;16.53;;;6.00;;
15385;SDS011;7791;47.246;9.648;2022-10-30T00:28:48;18.20;;;6.57;;
15385;SDS011;7791;47.246;9.648;2022-10-30T00:31:14;18.10;;;6.50;;
15385;SDS011;7791;47.246;9.648;2022-10-30T00:33:39;19.33;;;6.43;;
15385;SDS011;7791;47.246;9.648;2022-10-30T00:36:05;22.93;;;7.33;;
15385;SDS011;7791;47.246;9.648;2022-10-30T00:38:31;19.67;;;6.53;;
15385;SDS011;7791;47.246;9.648;2022-10-30T00:40:57;17.93;;;6.13;;
15385;SDS011;7791;47.246;9.648;2022-10-30T00:43:29;13.93;;;5.60;;
15385;SDS011;7791;47.246;9.648;2022-10-30T00:45:57;14.40;;;6.00;;
15385;SDS011;7791;47.246;9.648;2022-10-30T00:48:26;14.40;;;5.43;;
15385;SDS011;7791;47.246;9.648;2022-10-30T00:50:52;14.50;;;5.93;;
15385;SDS011;7791;47.246;9.648;2022-10-30T00:53:19;15.60;;;6.27;;
15385;SDS011;7791;47.246;9.648;2022-10-30T00:55:46;16.80;;;6.60;;
15385;SDS011;7791;47.246;9.648;2022-10-30T00:58:16;20.47;;;6.83;;
15385;SDS011;7791;47.246;9.648;2022-10-30T01:00:47;13.53;;;6.33;;
15385;SDS011;7791;47.246;9.648;2022-10-30T01:03:15;19.53;;;6.90;;
15385;SDS011;7791;47.246;9.648;2022-10-30T01:05:43;22.10;;;7.30;;
15385;SDS011;7791;47.246;9.648;2022-10-30T01:08:12;12.83;;;6.77;;
15385;SDS011;7791;47.246;9.648;2022-10-30T01:10:38;18.10;;;6.37;;
15385;SDS011;7791;47.246;9.648;2022-10-30T01:13:04;12.80;;;6.20;;
15385;SDS011;7791;47.246;9.648;2022-10-30T01:15:31;18.43;;;6.80;;
15385;SDS011;7791;47.246;9.648;2022-10-30T01:18:04;15.77;;;6.33;;
15385;SDS011;7791;47.246;9.648;2022-10-30T01:20:54;13.33;;;6.47;;
15385;SDS011;7791;47.246;9.648;2022-10-30T01:23:31;18.83;;;6.40;;
15385;SDS011;7791;47.246;9.648;2022-10-30T01:26:10;19.23;;;6.50;;
15385;SDS011;7791;47.246;9.648;2022-10-30T01:28:54;16.07;;;6.53;;
15385;SDS011;7791;47.246;9.648;2022-10-30T01:31:32;12.43;;;6.27;;
15385;SDS011;7791;47.246;9.648;2022-10-30T01:34:16;15.33;;;5.57;;
15385;SDS011;7791;47.246;9.648;2022-10-30T01:36:45;21.33;;;6.97;;
15385;SDS011;7791;47.246;9.648;2022-10-30T01:39:15;20.20;;;7.00;;
15385;SDS011;7791;47.246;9.648;2022-10-30T01:41:45;15.90;;;6.83;;
15385;SDS011;7791;47.246;9.648;2022-10-30T01:44:11;22.43;;;7.20;;
15385;SDS011;7791;47.246;9.648;2022-10-30T01:49:36;19.67;;;6.93;;
15385;SDS011;7791;47.246;9.648;2022-10-30T01:52:32;16.10;;;5.30;;
15385;SDS011;7791;47.246;9.648;2022-10-30T01:55:03;25.77;;;7.07;;
15385;SDS011;7791;47.246;9.648;2022-10-30T01:57:37;15.23;;;5.83;;
15385;SDS011;7791;47.246;9.648;2022-10-30T02:00:08;17.87;;;6.60;;
15385;SDS011;7791;47.246;9.648;2022-10-30T02:02:35;18.57;;;6.70;;
15385;SDS011;7791;47.246;9.648;2022-10-30T02:05:02;13.00;;;6.63;;
15385;SDS011;7791;47.246;9.648;2022-10-30T02:07:30;21.23;;;6.80;;
15385;SDS011;7791;47.246;9.648;2022-10-30T02:09:56;16.77;;;6.23;;
15385;SDS011;7791;47.246;9.648;2022-10-30T02:12:22;18.27;;;6.60;;
15385;SDS011;7791;47.246;9.648;2022-10-30T02:14:49;16.50;;;5.77;;
15385;SDS011;7791;47.246;9.648;2022-10-30T02:17:18;16.20;;;6.33;;
15385;SDS011;7791;47.246;9.648;2022-10-30T02:19:45;11.83;;;6.50;;
15385;SDS011;7791;47.246;9.648;2022-10-30T02:22:12;16.43;;;6.60;;
15385;SDS011;7791;47.246;9.648;2022-10-30T02:24:38;16.80;;;6.63;;
15385;SDS011;7791;47.246;9.648;2022-10-30T02:27:03;23.10;;;7.13;;
15385;SDS011;7791;47.246;9.648;2022-10-30T02:29:29;26.37;;;7.63;;
15385;SDS011;7791;47.246;9.648;2022-10-30T02:31:55;15.70;;;6.70;;
15385;SDS011;7791;47.246;9.648;2022-10-30T02:34:20;16.43;;;6.57;;
15385;SDS011;7791;47.246;9.648;2022-10-30T02:36:46;17.47;;;6.33;;
15385;SDS011;7791;47.246;9.648;2022-10-30T02:39:13;13.87;;;6.47;;
15385;SDS011;7791;47.246;9.648;2022-10-30T02:41:39;18.00;;;6.63;;
15385;SDS011;7791;47.246;9.648;2022-10-30T02:44:05;15.57;;;6.93;;
15385;SDS011;7791;47.246;9.648;2022-10-30T02:46:30;23.70;;;6.20;;
15385;SDS011;7791;47.246;9.648;2022-10-30T02:48:56;12.07;;;6.00;;
15385;SDS011;7791;47.246;9.648;2022-10-30T02:51:22;13.70;;;6.10;;
15385;SDS011;7791;47.246;9.648;2022-10-30T02:53:48;14.07;;;5.83;;
15385;SDS011;7791;47.246;9.648;2022-10-30T02:56:15;15.60;;;5.83;;
15385;SDS011;7791;47.246;9.648;2022-10-30T02:58:41;14.30;;;6.90;;
15385;SDS011;7791;47.246;9.648;2022-10-30T03:01:08;22.03;;;6.90;;
15385;SDS011;7791;47.246;9.648;2022-10-30T03:03:35;16.50;;;6.60;;
15385;SDS011;7791;47.246;9.648;2022-10-30T03:06:01;17.17;;;6.10;;
15385;SDS011;7791;47.246;9.648;2022-10-30T03:08:28;17.97;;;7.23;;
15385;SDS011;7791;47.246;9.648;2022-10-30T03:11:00;15.77;;;6.70;;
15385;SDS011;7791;47.246;9.648;2022-10-30T03:13:29;19.13;;;6.23;;
15385;SDS011;7791;47.246;9.648;2022-10-30T03:15:59;19.60;;;6.57;;
15385;SDS011;7791;47.246;9.648;2022-10-30T03:18:25;14.20;;;5.90;;
15385;SDS011;7791;47.246;9.648;2022-10-30T03:20:54;15.77;;;6.07;;
15385;SDS011;7791;47.246;9.648;2022-10-30T03:23:21;15.47;;;6.33;;
15385;SDS011;7791;47.246;9.648;2022-10-30T03:25:46;15.97;;;6.23;;
15385;SDS011;7791;47.246;9.648;2022-10-30T03:28:15;12.73;;;6.03;;
15385;SDS011;7791;47.246;9.648;2022-10-30T03:30:42;20.30;;;6.40;;
15385;SDS011;7791;47.246;9.648;2022-10-30T03:33:08;16.50;;;5.80;;
15385;SDS011;7791;47.246;9.648;2022-10-30T03:35:33;23.93;;;6.93;;
15385;SDS011;7791;47.246;9.648;2022-10-30T03:37:59;21.30;;;6.47;;
15385;SDS011;7791;47.246;9.648;2022-10-30T03:40:25;14.83;;;6.30;;
15385;SDS011;7791;47.246;9.648;2022-10-30T03:42:51;12.10;;;5.60;;
15385;SDS011;7791;47.246;9.648;2022-10-30T03:45:16;10.87;;;5.40;;
15385;SDS011;7791;47.246;9.648;2022-10-30T03:47:43;18.97;;;5.67;;
15385;SDS011;7791;47.246;9.648;2022-10-30T03:50:09;14.23;;;6.27;;
15385;SDS011;7791;47.246;9.648;2022-10-30T03:52:35;15.77;;;6.70;;
15385;SDS011;7791;47.246;9.648;2022-10-30T03:55:00;18.93;;;6.30;;
15385;SDS011;7791;47.246;9.648;2022-10-30T03:57:26;17.23;;;5.70;;
15385;SDS011;7791;47.246;9.648;2022-10-30T03:59:52;17.50;;;6.37;;
15385;SDS011;7791;47.246;9.648;2022-10-30T04:02:17;13.53;;;5.97;;
15385;SDS011;7791;47.246;9.648;2022-10-30T04:04:44;17.33;;;6.30;;
15385;SDS011;7791;47.246;9.648;2022-10-30T04:07:10;17.47;;;6.83;;
15385;SDS011;7791;47.246;9.648;2022-10-30T04:09:36;14.00;;;5.80;;
15385;SDS011;7791;47.246;9.648;2022-10-30T04:12:01;16.87;;;6.33;;
15385;SDS011;7791;47.246;9.648;2022-10-30T04:14:28;21.60;;;6.03;;
15385;SDS011;7791;47.246;9.648;2022-10-30T04:16:54;18.60;;;6.30;;
15385;SDS011;7791;47.246;9.648;2022-10-30T04:19:19;16.03;;;5.87;;
15385;SDS011;7791;47.246;9.648;2022-10-30T04:21:52;14.80;;;5.83;;
15385;SDS011;7791;47.246;9.648;2022-10-30T04:24:18;11.60;;;5.57;;
15385;SDS011;7791;47.246;9.648;2022-10-30T04:26:43;11.20;;;5.30;;
15385;SDS011;7791;47.246;9.648;2022-10-30T04:29:09;21.77;;;6.17;;
15385;SDS011;7791;47.246;9.648;2022-10-30T04:31:35;13.03;;;6.10;;
15385;SDS011;7791;47.246;9.648;2022-10-30T04:34:00;16.57;;;6.00;;
15385;SDS011;7791;47.246;9.648;2022-10-30T04:36:26;14.10;;;5.40;;
15385;SDS011;7791;47.246;9.648;2022-10-30T04:38:53;16.73;;;5.73;;
15385;SDS011;7791;47.246;9.648;2022-10-30T04:41:19;15.93;;;6.30;;
15385;SDS011;7791;47.246;9.648;2022-10-30T04:43:47;14.60;;;5.90;;
15385;SDS011;7791;47.246;9.648;2022-10-30T04:46:13;19.33;;;6.23;;
15385;SDS011;7791;47.246;9.648;2022-10-30T04:48:38;15.57;;;5.93;;
15385;SDS011;7791;47.246;9.648;2022-10-30T04:51:04;18.13;;;5.97;;
15385;SDS011;7791;47.246;9.648;2022-10-30T04:53:30;20.67;;;5.93;;
15385;SDS011;7791;47.246;9.648;2022-10-30T04:55:57;16.67;;;6.10;;
15385;SDS011;7791;47.246;9.648;2022-10-30T04:58:23;17.80;;;5.40;;
15385;SDS011;7791;47.246;9.648;2022-10-30T05:00:48;12.03;;;5.73;;
15385;SDS011;7791;47.246;9.648;2022-10-30T05:03:15;13.27;;;6.20;;
15385;SDS011;7791;47.246;9.648;2022-10-30T05:05:43;17.07;;;6.37;;
15385;SDS011;7791;47.246;9.648;2022-10-30T05:08:09;14.10;;;5.77;;
15385;SDS011;7791;47.246;9.648;2022-10-30T05:10:37;15.43;;;5.73;;
15385;SDS011;7791;47.246;9.648;2022-10-30T05:13:04;15.33;;;5.77;;
15385;SDS011;7791;47.246;9.648;2022-10-30T05:15:30;14.10;;;6.27;;
15385;SDS011;7791;47.246;9.648;2022-10-30T05:17:56;15.73;;;6.37;;
15385;SDS011;7791;47.246;9.648;2022-10-30T05:20:21;12.70;;;5.17;;
15385;SDS011;7791;47.246;9.648;2022-10-30T05:22:52;16.47;;;6.47;;
15385;SDS011;7791;47.246;9.648;2022-10-30T05:25:18;13.73;;;5.97;;
15385;SDS011;7791;47.246;9.648;2022-10-30T05:27:45;16.93;;;6.47;;
15385;SDS011;7791;47.246;9.648;2022-10-30T05:30:12;16.50;;;5.93;;
15385;SDS011;7791;47.246;9.648;2022-10-30T05:32:38;18.90;;;5.97;;
15385;SDS011;7791;47.246;9.648;2022-10-30T05:35:04;17.57;;;6.53;;
15385;SDS011;7791;47.246;9.648;2022-10-30T05:37:30;15.90;;;6.50;;
15385;SDS011;7791;47.246;9.648;2022-10-30T05:39:55;18.43;;;6.33;;
15385;SDS011;7791;47.246;9.648;2022-10-30T05:42:21;18.20;;;6.47;;
15385;SDS011;7791;47.246;9.648;2022-10-30T05:44:47;19.33;;;5.93;;
15385;SDS011;7791;47.246;9.648;2022-10-30T05:47:14;19.67;;;6.47;;
15385;SDS011;7791;47.246;9.648;2022-10-30T05:49:40;17.47;;;6.40;;
15385;SDS011;7791;47.246;9.648;2022-10-30T05:52:06;20.50;;;7.70;;
15385;SDS011;7791;47.246;9.648;2022-10-30T05:54:31;16.67;;;6.70;;
15385;SDS011;7791;47.246;9.648;2022-10-30T05:56:57;24.30;;;7.03;;
15385;SDS011;7791;47.246;9.648;2022-10-30T05:59:23;16.73;;;7.20;;
15385;SDS011;7791;47.246;9.648;2022-10-30T06:01:48;19.77;;;6.17;;
15385;SDS011;7791;47.246;9.648;2022-10-30T06:04:15;13.87;;;6.20;;
15385;SDS011;7791;47.246;9.648;2022-10-30T06:06:41;17.57;;;6.03;;
15385;SDS011;7791;47.246;9.648;2022-10-30T06:09:07;16.37;;;5.97;;
15385;SDS011;7791;47.246;9.648;2022-10-30T06:11:32;17.33;;;6.40;;
15385;SDS011;7791;47.246;9.648;2022-10-30T06:13:58;17.43;;;6.50;;
15385;SDS011;7791;47.246;9.648;2022-10-30T06:16:24;18.97;;;6.90;;
15385;SDS011;7791;47.246;9.648;2022-10-30T06:18:49;20.77;;;7.20;;
15385;SDS011;7791;47.246;9.648;2022-10-30T06:21:16;19.50;;;6.37;;
15385;SDS011;7791;47.246;9.648;2022-10-30T06:23:47;21.33;;;6.33;;
15385;SDS011;7791;47.246;9.648;2022-10-30T06:26:13;17.00;;;6.53;;
15385;SDS011;7791;47.246;9.648;2022-10-30T06:28:39;19.07;;;6.40;;
15385;SDS011;7791;47.246;9.648;2022-10-30T06:31:05;18.17;;;6.53;;
15385;SDS011;7791;47.246;9.648;2022-10-30T06:33:30;18.33;;;5.80;;
15385;SDS011;7791;47.246;9.648;2022-10-30T06:35:56;16.77;;;6.20;;
15385;SDS011;7791;47.246;9.648;2022-10-30T06:38:23;17.10;;;6.27;;
15385;SDS011;7791;47.246;9.648;2022-10-30T06:40:49;20.07;;;6.80;;
15385;SDS011;7791;47.246;9.648;2022-10-30T06:43:15;14.90;;;6.10;;
15385;SDS011;7791;47.246;9.648;2022-10-30T06:45:40;15.60;;;6.27;;
15385;SDS011;7791;47.246;9.648;2022-10-30T06:48:07;15.37;;;6.47;;
15385;SDS011;7791;47.246;9.648;2022-10-30T06:50:33;16.47;;;5.90;;
15385;SDS011;7791;47.246;9.648;2022-10-30T06:52:59;12.90;;;6.10;;
15385;SDS011;7791;47.246;9.648;2022-10-30T06:55:26;16.77;;;6.17;;
15385;SDS011;7791;47.246;9.648;2022-10-30T06:57:54;21.33;;;6.47;;
15385;SDS011;7791;47.246;9.648;2022-10-30T07:00:21;15.07;;;6.70;;
15385;SDS011;7791;47.246;9.648;2022-10-30T07:02:53;20.30;;;6.00;;
15385;SDS011;7791;47.246;9.648;2022-10-30T07:05:22;17.13;;;6.03;;
15385;SDS011;7791;47.246;9.648;2022-10-30T07:07:48;18.30;;;6.63;;
15385;SDS011;7791;47.246;9.648;2022-10-30T07:10:14;16.50;;;5.50;;
15385;SDS011;7791;47.246;9.648;2022-10-30T07:12:41;14.80;;;5.57;;
15385;SDS011;7791;47.246;9.648;2022-10-30T07:15:07;11.63;;;5.23;;
15385;SDS011;7791;47.246;9.648;2022-10-30T07:17:33;14.73;;;6.30;;
15385;SDS011;7791;47.246;9.648;2022-10-30T07:19:59;17.33;;;5.67;;
15385;SDS011;7791;47.246;9.648;2022-10-30T07:22:25;12.70;;;5.73;;
15385;SDS011;7791;47.246;9.648;2022-10-30T07:24:50;13.53;;;6.40;;
15385;SDS011;7791;47.246;9.648;2022-10-30T07:27:16;15.10;;;6.20;;
15385;SDS011;7791;47.246;9.648;2022-10-30T07:29:43;10.63;;;5.13;;
15385;SDS011;7791;47.246;9.648;2022-10-30T07:32:10;12.83;;;4.20;;
15385;SDS011;7791;47.246;9.648;2022-10-30T07:34:36;12.20;;;4.30;;
15385;SDS011;7791;47.246;9.648;2022-10-30T07:37:01;14.07;;;4.77;;
15385;SDS011;7791;47.246;9.648;2022-10-30T07:39:27;10.93;;;3.97;;
15385;SDS011;7791;47.246;9.648;2022-10-30T07:41:53;13.63;;;4.33;;
15385;SDS011;7791;47.246;9.648;2022-10-30T07:44:18;11.47;;;4.37;;
15385;SDS011;7791;47.246;9.648;2022-10-30T07:46:46;12.13;;;4.03;;
15385;SDS011;7791;47.246;9.648;2022-10-30T07:49:11;13.87;;;3.93;;
15385;SDS011;7791;47.246;9.648;2022-10-30T07:51:37;10.60;;;3.63;;
15385;SDS011;7791;47.246;9.648;2022-10-30T07:54:03;7.27;;;3.77;;
15385;SDS011;7791;47.246;9.648;2022-10-30T07:56:29;11.90;;;4.10;;
15385;SDS011;7791;47.246;9.648;2022-10-30T07:58:54;9.80;;;3.77;;
15385;SDS011;7791;47.246;9.648;2022-10-30T08:01:20;13.07;;;4.40;;
15385;SDS011;7791;47.246;9.648;2022-10-30T08:03:47;12.63;;;4.77;;
15385;SDS011;7791;47.246;9.648;2022-10-30T08:06:13;12.70;;;4.53;;
15385;SDS011;7791;47.246;9.648;2022-10-30T08:08:39;12.10;;;4.93;;
15385;SDS011;7791;47.246;9.648;2022-10-30T08:11:06;14.50;;;3.80;;
15385;SDS011;7791;47.246;9.648;2022-10-30T08:13:32;9.53;;;3.70;;
15385;SDS011;7791;47.246;9.648;2022-10-30T08:15:57;9.83;;;4.20;;
15385;SDS011;7791;47.246;9.648;2022-10-30T08:18:23;8.93;;;3.47;;
15385;SDS011;7791;47.246;9.648;2022-10-30T08:20:50;11.33;;;4.10;;
15385;SDS011;7791;47.246;9.648;2022-10-30T08:23:16;10.77;;;3.90;;
15385;SDS011;7791;47.246;9.648;2022-10-30T08:25:42;11.03;;;3.90;;
15385;SDS011;7791;47.246;9.648;2022-10-30T08:28:08;12.47;;;4.57;;
15385;SDS011;7791;47.246;9.648;2022-10-30T08:30:35;11.60;;;4.30;;
15385;SDS011;7791;47.246;9.648;2022-10-30T08:33:01;11.80;;;4.13;;
15385;SDS011;7791;47.246;9.648;2022-10-30T08:35:28;13.87;;;4.77;;
15385;SDS011;7791;47.246;9.648;2022-10-30T08:37:56;14.87;;;4.77;;
15385;SDS011;7791;47.246;9.648;2022-10-30T08:40:23;15.57;;;5.20;;
15385;SDS011;7791;47.246;9.648;2022-10-30T08:42:49;12.37;;;5.60;;
15385;SDS011;7791;47.246;9.648;2022-10-30T08:45:15;13.60;;;5.10;;
15385;SDS011;7791;47.246;9.648;2022-10-30T08:47:41;11.30;;;4.73;;
15385;SDS011;7791;47.246;9.648;2022-10-30T08:50:07;14.13;;;4.50;;
15385;SDS011;7791;47.246;9.648;2022-10-30T08:52:33;12.57;;;4.47;;
15385;SDS011;7791;47.246;9.648;2022-10-30T08:55:00;14.90;;;4.13;;
15385;SDS011;7791;47.246;9.648;2022-10-30T08:57:26;13.80;;;4.00;;
15385;SDS011;7791;47.246;9.648;2022-10-30T08:59:52;15.17;;;4.97;;
15385;SDS011;7791;47.246;9.648;2022-10-30T09:02:17;15.70;;;4.30;;
15385;SDS011;7791;47.246;9.648;2022-10-30T09:04:43;18.87;;;4.10;;
15385;SDS011;7791;47.246;9.648;2022-10-30T09:07:09;12.77;;;4.00;;
15385;SDS011;7791;47.246;9.648;2022-10-30T09:09:35;10.57;;;3.97;;
15385;SDS011;7791;47.246;9.648;2022-10-30T09:12:02;15.88;;;4.00;;
15385;SDS011;7791;47.246;9.648;2022-10-30T09:14:28;8.43;;;3.72;;
15385;SDS011;7791;47.246;9.648;2022-10-30T09:16:53;10.38;;;3.78;;
15385;SDS011;7791;47.246;9.648;2022-10-30T09:19:19;11.60;;;3.65;;
15385;SDS011;7791;47.246;9.648;2022-10-30T09:21:45;12.07;;;3.53;;
15385;SDS011;7791;47.246;9.648;2022-10-30T09:24:11;12.63;;;3.55;;
15385;SDS011;7791;47.246;9.648;2022-10-30T09:26:37;11.07;;;3.53;;
15385;SDS011;7791;47.246;9.648;2022-10-30T09:29:04;10.07;;;3.65;;
15385;SDS011;7791;47.246;9.648;2022-10-30T09:31:29;11.57;;;3.20;;
15385;SDS011;7791;47.246;9.648;2022-10-30T09:33:55;12.55;;;3.15;;
15385;SDS011;7791;47.246;9.648;2022-10-30T09:36:21;11.00;;;3.10;;
15385;SDS011;7791;47.246;9.648;2022-10-30T09:38:47;12.02;;;3.35;;
15385;SDS011;7791;47.246;9.648;2022-10-30T09:41:18;11.30;;;3.30;;
15385;SDS011;7791;47.246;9.648;2022-10-30T09:44:09;12.52;;;3.10;;
15385;SDS011;7791;47.246;9.648;2022-10-30T09:46:48;16.33;;;3.95;;
15385;SDS011;7791;47.246;9.648;2022-10-30T09:49:33;12.52;;;4.47;;
15385;SDS011;7791;47.246;9.648;2022-10-30T09:52:19;10.63;;;4.38;;
15385;SDS011;7791;47.246;9.648;2022-10-30T09:54:55;12.10;;;3.90;;
15385;SDS011;7791;47.246;9.648;2022-10-30T09:57:44;11.82;;;3.25;;
15385;SDS011;7791;47.246;9.648;2022-10-30T10:00:17;11.65;;;3.50;;
15385;SDS011;7791;47.246;9.648;2022-10-30T10:02:50;13.10;;;3.63;;
15385;SDS011;7791;47.246;9.648;2022-10-30T10:05:27;15.82;;;4.28;;
15385;SDS011;7791;47.246;9.648;2022-10-30T10:08:00;12.07;;;5.55;;
15385;SDS011;7791;47.246;9.648;2022-10-30T10:10:32;14.43;;;5.15;;
15385;SDS011;7791;47.246;9.648;2022-10-30T10:13:03;12.18;;;5.28;;
15385;SDS011;7791;47.246;9.648;2022-10-30T10:15:38;13.68;;;5.07;;
15385;SDS011;7791;47.246;9.648;2022-10-30T10:18:11;10.23;;;4.38;;
15385;SDS011;7791;47.246;9.648;2022-10-30T10:20:42;13.30;;;4.57;;
15385;SDS011;7791;47.246;9.648;2022-10-30T10:23:13;13.30;;;5.00;;
15385;SDS011;7791;47.246;9.648;2022-10-30T10:25:44;10.10;;;4.70;;
15385;SDS011;7791;47.246;9.648;2022-10-30T10:28:15;17.27;;;4.60;;
15385;SDS011;7791;47.246;9.648;2022-10-30T10:30:51;12.43;;;5.22;;
15385;SDS011;7791;47.246;9.648;2022-10-30T10:33:31;13.93;;;4.95;;
15385;SDS011;7791;47.246;9.648;2022-10-30T10:36:13;16.35;;;4.93;;
15385;SDS011;7791;47.246;9.648;2022-10-30T10:38:53;13.45;;;5.15;;
15385;SDS011;7791;47.246;9.648;2022-10-30T10:41:32;9.02;;;5.43;;
15385;SDS011;7791;47.246;9.648;2022-10-30T10:44:17;12.35;;;5.32;;
15385;SDS011;7791;47.246;9.648;2022-10-30T10:47:00;13.13;;;5.70;;
15385;SDS011;7791;47.246;9.648;2022-10-30T10:49:41;12.40;;;6.32;;
15385;SDS011;7791;47.246;9.648;2022-10-30T10:52:18;14.63;;;5.32;;
15385;SDS011;7791;47.246;9.648;2022-10-30T10:54:47;12.50;;;5.78;;
15385;SDS011;7791;47.246;9.648;2022-10-30T10:57:20;14.40;;;6.03;;
15385;SDS011;7791;47.246;9.648;2022-10-30T10:59:53;12.30;;;5.22;;
15385;SDS011;7791;47.246;9.648;2022-10-30T11:02:32;11.82;;;5.60;;
15385;SDS011;7791;47.246;9.648;2022-10-30T11:05:04;9.98;;;5.90;;
15385;SDS011;7791;47.246;9.648;2022-10-30T11:07:38;10.35;;;5.90;;
15385;SDS011;7791;47.246;9.648;2022-10-30T11:10:11;10.40;;;5.50;;
15385;SDS011;7791;47.246;9.648;2022-10-30T11:12:37;9.93;;;5.10;;
15385;SDS011;7791;47.246;9.648;2022-10-30T11:15:05;11.65;;;5.32;;
15385;SDS011;7791;47.246;9.648;2022-10-30T11:17:44;10.05;;;5.72;;
15385;SDS011;7791;47.246;9.648;2022-10-30T11:20:19;12.13;;;5.65;;
15385;SDS011;7791;47.246;9.648;2022-10-30T11:22:52;8.55;;;4.97;;
15385;SDS011;7791;47.246;9.648;2022-10-30T11:25:18;12.27;;;6.13;;
15385;SDS011;7791;47.246;9.648;2022-10-30T11:27:46;18.55;;;5.88;;
15385;SDS011;7791;47.246;9.648;2022-10-30T11:30:15;9.30;;;5.13;;
15385;SDS011;7791;47.246;9.648;2022-10-30T11:32:44;11.52;;;5.57;;
15385;SDS011;7791;47.246;9.648;2022-10-30T11:35:11;13.50;;;5.57;;
15385;SDS011;7791;47.246;9.648;2022-10-30T11:37:39;9.07;;;5.80;;
15385;SDS011;7791;47.246;9.648;2022-10-30T11:40:15;12.52;;;6.40;;
15385;SDS011;7791;47.246;9.648;2022-10-30T11:42:42;12.77;;;5.93;;
15385;SDS011;7791;47.246;9.648;2022-10-30T11:45:12;14.82;;;6.03;;
15385;SDS011;7791;47.246;9.648;2022-10-30T11:47:40;13.30;;;6.30;;
15385;SDS011;7791;47.246;9.648;2022-10-30T11:50:13;7.97;;;6.15;;
15385;SDS011;7791;47.246;9.648;2022-10-30T11:52:41;12.75;;;6.05;;
15385;SDS011;7791;47.246;9.648;2022-10-30T11:55:09;10.82;;;6.25;;
15385;SDS011;7791;47.246;9.648;2022-10-30T11:57:40;17.73;;;8.43;;
15385;SDS011;7791;47.246;9.648;2022-10-30T12:00:13;12.20;;;6.70;;
15385;SDS011;7791;47.246;9.648;2022-10-30T12:02:41;14.07;;;7.18;;
15385;SDS011;7791;47.246;9.648;2022-10-30T12:05:27;14.73;;;7.97;;
15385;SDS011;7791;47.246;9.648;2022-10-30T12:08:10;13.32;;;8.10;;
15385;SDS011;7791;47.246;9.648;2022-10-30T12:10:43;12.50;;;7.90;;
15385;SDS011;7791;47.246;9.648;2022-10-30T12:13:23;13.93;;;8.57;;
15385;SDS011;7791;47.246;9.648;2022-10-30T12:15:50;15.13;;;8.57;;
15385;SDS011;7791;47.246;9.648;2022-10-30T12:18:32;14.30;;;8.57;;
15385;SDS011;7791;47.246;9.648;2022-10-30T12:21:00;13.90;;;7.82;;
15385;SDS011;7791;47.246;9.648;2022-10-30T12:23:27;12.18;;;7.65;;
15385;SDS011;7791;47.246;9.648;2022-10-30T12:25:56;15.48;;;7.22;;
15385;SDS011;7791;47.246;9.648;2022-10-30T12:28:25;14.73;;;7.43;;
15385;SDS011;7791;47.246;9.648;2022-10-30T12:30:53;16.43;;;7.80;;
15385;SDS011;7791;47.246;9.648;2022-10-30T12:33:24;16.47;;;6.33;;
15385;SDS011;7791;47.246;9.648;2022-10-30T12:35:53;18.83;;;6.47;;
15385;SDS011;7791;47.246;9.648;2022-10-30T12:38:24;16.50;;;6.13;;
15385;SDS011;7791;47.246;9.648;2022-10-30T12:40:59;12.83;;;7.50;;
15385;SDS011;7791;47.246;9.648;2022-10-30T12:43:30;14.13;;;7.30;;
15385;SDS011;7791;47.246;9.648;2022-10-30T12:46:01;13.40;;;7.03;;
15385;SDS011;7791;47.246;9.648;2022-10-30T12:48:40;15.43;;;7.20;;
15385;SDS011;7791;47.246;9.648;2022-10-30T12:51:15;17.50;;;7.03;;
15385;SDS011;7791;47.246;9.648;2022-10-30T12:53:47;13.80;;;6.60;;
15385;SDS011;7791;47.246;9.648;2022-10-30T12:56:18;12.47;;;6.93;;
15385;SDS011;7791;47.246;9.648;2022-10-30T12:58:49;15.27;;;7.73;;
15385;SDS011;7791;47.246;9.648;2022-10-30T13:01:21;16.27;;;7.73;;
15385;SDS011;7791;47.246;9.648;2022-10-30T13:03:52;16.70;;;7.83;;
15385;SDS011;7791;47.246;9.648;2022-10-30T13:06:23;14.50;;;7.50;;
15385;SDS011;7791;47.246;9.648;2022-10-30T13:08:57;14.80;;;7.80;;
15385;SDS011;7791;47.246;9.648;2022-10-30T13:11:31;14.17;;;8.60;;
15385;SDS011;7791;47.246;9.648;2022-10-30T13:14:05;15.17;;;8.87;;
15385;SDS011;7791;47.246;9.648;2022-10-30T13:16:37;20.77;;;8.20;;
15385;SDS011;7791;47.246;9.648;2022-10-30T13:19:04;15.03;;;8.63;;
15385;SDS011;7791;47.246;9.648;2022-10-30T13:21:36;19.53;;;9.03;;
15385;SDS011;7791;47.246;9.648;2022-10-30T13:24:10;12.80;;;8.67;;
15385;SDS011;7791;47.246;9.648;2022-10-30T13:26:40;16.97;;;9.20;;
15385;SDS011;7791;47.246;9.648;2022-10-30T13:29:14;15.50;;;8.97;;
15385;SDS011;7791;47.246;9.648;2022-10-30T13:31:49;18.03;;;9.87;;
15385;SDS011;7791;47.246;9.648;2022-10-30T13:34:26;17.40;;;10.20;;
15385;SDS011;7791;47.246;9.648;2022-10-30T13:37:01;21.73;;;10.20;;
15385;SDS011;7791;47.246;9.648;2022-10-30T13:39:36;16.83;;;10.87;;
15385;SDS011;7791;47.246;9.648;2022-10-30T13:42:16;17.80;;;10.57;;
15385;SDS011;7791;47.246;9.648;2022-10-30T13:44:50;15.43;;;11.10;;
15385;SDS011;7791;47.246;9.648;2022-10-30T13:47:26;19.87;;;10.77;;
15385;SDS011;7791;47.246;9.648;2022-10-30T13:50:03;18.47;;;11.87;;
15385;SDS011;7791;47.246;9.648;2022-10-30T13:52:43;18.27;;;11.13;;
15385;SDS011;7791;47.246;9.648;2022-10-30T13:55:16;17.40;;;11.13;;
15385;SDS011;7791;47.246;9.648;2022-10-30T13:57:47;15.77;;;10.67;;
15385;SDS011;7791;47.246;9.648;2022-10-30T14:00:21;18.03;;;11.10;;
15385;SDS011;7791;47.246;9.648;2022-10-30T14:03:00;21.17;;;11.03;;
15385;SDS011;7791;47.246;9.648;2022-10-30T14:05:35;19.53;;;11.20;;
15385;SDS011;7791;47.246;9.648;2022-10-30T14:08:07;15.97;;;11.37;;
15385;SDS011;7791;47.246;9.648;2022-10-30T14:10:46;16.60;;;11.50;;
15385;SDS011;7791;47.246;9.648;2022-10-30T14:13:14;21.47;;;12.13;;
15385;SDS011;7791;47.246;9.648;2022-10-30T14:15:45;19.50;;;11.23;;
15385;SDS011;7791;47.246;9.648;2022-10-30T14:18:28;18.60;;;11.90;;
15385;SDS011;7791;47.246;9.648;2022-10-30T14:21:29;16.73;;;10.57;;
15385;SDS011;7791;47.246;9.648;2022-10-30T14:24:12;15.00;;;11.30;;
15385;SDS011;7791;47.246;9.648;2022-10-30T14:26:43;18.67;;;11.60;;
15385;SDS011;7791;47.246;9.648;2022-10-30T14:29:30;18.87;;;11.37;;
15385;SDS011;7791;47.246;9.648;2022-10-30T14:35:00;20.37;;;11.60;;
15385;SDS011;7791;47.246;9.648;2022-10-30T14:40:32;16.80;;;11.50;;
15385;SDS011;7791;47.246;9.648;2022-10-30T14:43:05;26.53;;;12.70;;
15385;SDS011;7791;47.246;9.648;2022-10-30T14:45:37;19.87;;;12.10;;
15385;SDS011;7791;47.246;9.648;2022-10-30T14:48:08;18.47;;;11.83;;
15385;SDS011;7791;47.246;9.648;2022-10-30T14:50:49;20.83;;;12.17;;
15385;SDS011;7791;47.246;9.648;2022-10-30T14:53:23;21.17;;;12.27;;
15385;SDS011;7791;47.246;9.648;2022-10-30T14:56:03;19.07;;;11.97;;
15385;SDS011;7791;47.246;9.648;2022-10-30T14:58:34;19.73;;;11.03;;
15385;SDS011;7791;47.246;9.648;2022-10-30T15:03:58;22.33;;;11.87;;
15385;SDS011;7791;47.246;9.648;2022-10-30T15:06:51;15.93;;;10.57;;
15385;SDS011;7791;47.246;9.648;2022-10-30T15:09:26;26.47;;;12.13;;
15385;SDS011;7791;47.246;9.648;2022-10-30T15:12:21;17.90;;;11.53;;
15385;SDS011;7791;47.246;9.648;2022-10-30T15:14:56;19.20;;;11.30;;